sensor_id;sensor_type;location;lat;lon;timestamp;P1;durP1;ratioP1;P2;durP2;ratioP2
27893;SDS011;15240;50.812;4.792;2022-12-18T00:00:03;87.20;;;38.87;;
27893;SDS011;15240;50.812;4.792;2022-12-18T00:02:30;70.03;;;34.13;;
27893;SDS011;15240;50.812;4.792;2022-12-18T00:04:56;78.63;;;36.27;;
27893;SDS011;15240;50.812;4.792;2022-12-18T00:07:22;81.33;;;37.60;;
27893;SDS011;15240;50.812;4.792;2022-12-18T00:09:48;76.57;;;35.70;;
27893;SDS011;15240;50.812;4.792;2022-12-18T00:12:14;74.27;;;34.10;;
27893;SDS011;15240;50.812;4.792;2022-12-18T00:14:41;80.70;;;35.53;;
27893;SDS011;15240;50.812;4.792;2022-12-18T00:17:08;71.17;;;33.97;;
27893;SDS011;15240;50.812;4.792;2022-12-18T00:19:34;72.70;;;35.23;;
27893;SDS011;15240;50.812;4.792;2022-12-18T00:22:00;79.57;;;36.50;;
27893;SDS011;15240;50.812;4.792;2022-12-18T00:24:26;81.10;;;35.90;;
27893;SDS011;15240;50.812;4.792;2022-12-18T00:26:53;78.40;;;35.53;;
27893;SDS011;15240;50.812;4.792;2022-12-18T00:29:19;72.40;;;35.00;;
27893;SDS011;15240;50.812;4.792;2022-12-18T00:31:45;72.10;;;34.57;;
27893;SDS011;15240;50.812;4.792;2022-12-18T00:34:11;75.53;;;36.87;;
27893;SDS011;15240;50.812;4.792;2022-12-18T00:36:37;77.67;;;37.30;;
27893;SDS011;15240;50.812;4.792;2022-12-18T00:39:04;78.43;;;35.93;;
27893;SDS011;15240;50.812;4.792;2022-12-18T00:41:32;79.97;;;35.63;;
27893;SDS011;15240;50.812;4.792;2022-12-18T00:44:17;76.30;;;34.23;;
27893;SDS011;15240;50.812;4.792;2022-12-18T00:46:43;75.33;;;34.33;;
27893;SDS011;15240;50.812;4.792;2022-12-18T00:49:10;76.03;;;35.17;;
27893;SDS011;15240;50.812;4.792;2022-12-18T00:51:37;70.83;;;32.30;;
27893;SDS011;15240;50.812;4.792;2022-12-18T00:54:04;65.60;;;32.33;;
27893;SDS011;15240;50.812;4.792;2022-12-18T00:56:30;68.60;;;33.13;;
27893;SDS011;15240;50.812;4.792;2022-12-18T00:58:56;77.33;;;35.60;;
27893;SDS011;15240;50.812;4.792;2022-12-18T01:01:22;68.43;;;33.17;;
27893;SDS011;15240;50.812;4.792;2022-12-18T01:03:48;70.17;;;33.93;;
27893;SDS011;15240;50.812;4.792;2022-12-18T01:06:14;73.70;;;33.97;;
27893;SDS011;15240;50.812;4.792;2022-12-18T01:08:41;72.93;;;33.83;;
27893;SDS011;15240;50.812;4.792;2022-12-18T01:11:08;72.77;;;33.83;;
27893;SDS011;15240;50.812;4.792;2022-12-18T01:13:35;78.63;;;35.47;;
27893;SDS011;15240;50.812;4.792;2022-12-18T01:16:01;77.90;;;36.60;;
27893;SDS011;15240;50.812;4.792;2022-12-18T01:18:27;77.07;;;34.80;;
27893;SDS011;15240;50.812;4.792;2022-12-18T01:20:53;80.50;;;35.73;;
27893;SDS011;15240;50.812;4.792;2022-12-18T01:23:19;79.53;;;36.07;;
27893;SDS011;15240;50.812;4.792;2022-12-18T01:25:45;76.27;;;36.33;;
27893;SDS011;15240;50.812;4.792;2022-12-18T01:28:11;84.77;;;36.50;;
27893;SDS011;15240;50.812;4.792;2022-12-18T01:30:37;79.03;;;33.97;;
27893;SDS011;15240;50.812;4.792;2022-12-18T01:33:04;79.63;;;34.70;;
27893;SDS011;15240;50.812;4.792;2022-12-18T01:35:31;69.23;;;32.47;;
27893;SDS011;15240;50.812;4.792;2022-12-18T01:37:57;70.23;;;32.07;;
27893;SDS011;15240;50.812;4.792;2022-12-18T01:40:23;68.23;;;31.57;;
27893;SDS011;15240;50.812;4.792;2022-12-18T01:42:52;64.70;;;30.87;;
27893;SDS011;15240;50.812;4.792;2022-12-18T01:52:44;70.83;;;33.07;;
27893;SDS011;15240;50.812;4.792;2022-12-18T01:55:11;68.47;;;31.23;;
27893;SDS011;15240;50.812;4.792;2022-12-18T01:57:38;71.13;;;31.90;;
27893;SDS011;15240;50.812;4.792;2022-12-18T02:00:09;66.33;;;31.57;;
27893;SDS011;15240;50.812;4.792;2022-12-18T02:02:36;66.00;;;31.73;;
27893;SDS011;15240;50.812;4.792;2022-12-18T02:05:02;67.60;;;31.67;;
27893;SDS011;15240;50.812;4.792;2022-12-18T02:07:35;73.77;;;33.07;;
27893;SDS011;15240;50.812;4.792;2022-12-18T02:10:07;68.33;;;32.57;;
27893;SDS011;15240;50.812;4.792;2022-12-18T02:12:41;73.40;;;33.87;;
27893;SDS011;15240;50.812;4.792;2022-12-18T02:15:28;70.77;;;33.07;;
27893;SDS011;15240;50.812;4.792;2022-12-18T02:18:03;71.97;;;32.93;;
27893;SDS011;15240;50.812;4.792;2022-12-18T02:20:35;74.70;;;32.77;;
27893;SDS011;15240;50.812;4.792;2022-12-18T02:28:22;70.37;;;33.70;;
27893;SDS011;15240;50.812;4.792;2022-12-18T02:30:49;69.80;;;32.23;;
27893;SDS011;15240;50.812;4.792;2022-12-18T02:33:17;67.90;;;32.03;;
27893;SDS011;15240;50.812;4.792;2022-12-18T02:35:44;75.17;;;34.20;;
27893;SDS011;15240;50.812;4.792;2022-12-18T02:38:11;69.53;;;31.67;;
27893;SDS011;15240;50.812;4.792;2022-12-18T02:40:37;61.87;;;29.77;;
27893;SDS011;15240;50.812;4.792;2022-12-18T02:43:08;59.23;;;28.57;;
27893;SDS011;15240;50.812;4.792;2022-12-18T02:45:35;57.90;;;29.47;;
27893;SDS011;15240;50.812;4.792;2022-12-18T02:48:01;55.03;;;28.70;;
27893;SDS011;15240;50.812;4.792;2022-12-18T02:50:38;51.53;;;25.50;;
27893;SDS011;15240;50.812;4.792;2022-12-18T02:53:10;57.50;;;27.37;;
27893;SDS011;15240;50.812;4.792;2022-12-18T03:00:50;58.53;;;27.43;;
27893;SDS011;15240;50.812;4.792;2022-12-18T03:05:47;60.57;;;28.53;;
27893;SDS011;15240;50.812;4.792;2022-12-18T03:08:21;52.70;;;27.07;;
27893;SDS011;15240;50.812;4.792;2022-12-18T03:11:10;56.67;;;26.97;;
27893;SDS011;15240;50.812;4.792;2022-12-18T03:13:44;60.00;;;26.77;;
27893;SDS011;15240;50.812;4.792;2022-12-18T03:16:13;51.77;;;26.80;;
27893;SDS011;15240;50.812;4.792;2022-12-18T03:18:51;51.70;;;26.73;;
27893;SDS011;15240;50.812;4.792;2022-12-18T03:21:21;51.40;;;25.07;;
27893;SDS011;15240;50.812;4.792;2022-12-18T03:23:49;52.90;;;27.83;;
27893;SDS011;15240;50.812;4.792;2022-12-18T03:26:17;52.10;;;26.73;;
27893;SDS011;15240;50.812;4.792;2022-12-18T03:28:55;59.47;;;28.10;;
27893;SDS011;15240;50.812;4.792;2022-12-18T03:31:23;59.30;;;28.63;;
27893;SDS011;15240;50.812;4.792;2022-12-18T03:33:52;54.53;;;27.17;;
27893;SDS011;15240;50.812;4.792;2022-12-18T03:36:19;55.83;;;28.17;;
27893;SDS011;15240;50.812;4.792;2022-12-18T03:38:45;60.57;;;28.90;;
27893;SDS011;15240;50.812;4.792;2022-12-18T03:46:15;57.47;;;28.37;;
27893;SDS011;15240;50.812;4.792;2022-12-18T03:48:44;58.93;;;28.60;;
27893;SDS011;15240;50.812;4.792;2022-12-18T03:51:22;59.70;;;27.97;;
27893;SDS011;15240;50.812;4.792;2022-12-18T03:53:59;57.93;;;26.97;;
27893;SDS011;15240;50.812;4.792;2022-12-18T03:56:28;56.10;;;27.87;;
27893;SDS011;15240;50.812;4.792;2022-12-18T03:58:55;62.20;;;30.07;;
27893;SDS011;15240;50.812;4.792;2022-12-18T04:01:24;56.70;;;28.43;;
27893;SDS011;15240;50.812;4.792;2022-12-18T04:03:52;60.13;;;29.63;;
27893;SDS011;15240;50.812;4.792;2022-12-18T04:06:18;58.10;;;28.33;;
27893;SDS011;15240;50.812;4.792;2022-12-18T04:08:44;59.57;;;29.63;;
27893;SDS011;15240;50.812;4.792;2022-12-18T04:11:11;69.53;;;30.03;;
27893;SDS011;15240;50.812;4.792;2022-12-18T04:13:37;59.80;;;29.03;;
27893;SDS011;15240;50.812;4.792;2022-12-18T04:16:04;56.07;;;29.57;;
27893;SDS011;15240;50.812;4.792;2022-12-18T04:18:30;62.93;;;28.57;;
27893;SDS011;15240;50.812;4.792;2022-12-18T04:20:56;58.17;;;28.47;;
27893;SDS011;15240;50.812;4.792;2022-12-18T04:23:22;58.07;;;27.67;;
27893;SDS011;15240;50.812;4.792;2022-12-18T04:25:48;58.03;;;27.03;;
27893;SDS011;15240;50.812;4.792;2022-12-18T04:28:15;56.20;;;27.13;;
27893;SDS011;15240;50.812;4.792;2022-12-18T04:30:41;53.27;;;25.97;;
27893;SDS011;15240;50.812;4.792;2022-12-18T04:33:08;50.83;;;26.77;;
27893;SDS011;15240;50.812;4.792;2022-12-18T04:35:34;54.87;;;26.53;;
27893;SDS011;15240;50.812;4.792;2022-12-18T04:38:00;52.07;;;25.23;;
27893;SDS011;15240;50.812;4.792;2022-12-18T04:40:26;53.73;;;25.80;;
27893;SDS011;15240;50.812;4.792;2022-12-18T04:42:52;51.80;;;25.43;;
27893;SDS011;15240;50.812;4.792;2022-12-18T04:45:18;49.33;;;26.30;;
27893;SDS011;15240;50.812;4.792;2022-12-18T04:47:44;53.77;;;24.67;;
27893;SDS011;15240;50.812;4.792;2022-12-18T04:50:10;53.63;;;25.77;;
27893;SDS011;15240;50.812;4.792;2022-12-18T04:52:36;50.80;;;25.03;;
27893;SDS011;15240;50.812;4.792;2022-12-18T04:55:03;48.53;;;24.70;;
27893;SDS011;15240;50.812;4.792;2022-12-18T04:57:29;53.37;;;25.70;;
27893;SDS011;15240;50.812;4.792;2022-12-18T04:59:55;49.97;;;23.73;;
27893;SDS011;15240;50.812;4.792;2022-12-18T05:02:21;47.47;;;23.90;;
27893;SDS011;15240;50.812;4.792;2022-12-18T05:04:47;44.73;;;22.77;;
27893;SDS011;15240;50.812;4.792;2022-12-18T05:07:14;46.50;;;24.53;;
27893;SDS011;15240;50.812;4.792;2022-12-18T05:09:40;46.03;;;23.50;;
27893;SDS011;15240;50.812;4.792;2022-12-18T05:12:06;46.47;;;22.43;;
27893;SDS011;15240;50.812;4.792;2022-12-18T05:14:32;45.20;;;22.53;;
27893;SDS011;15240;50.812;4.792;2022-12-18T05:16:58;44.93;;;23.40;;
27893;SDS011;15240;50.812;4.792;2022-12-18T05:19:24;47.40;;;23.20;;
27893;SDS011;15240;50.812;4.792;2022-12-18T05:21:50;46.43;;;22.97;;
27893;SDS011;15240;50.812;4.792;2022-12-18T05:24:16;50.27;;;24.73;;
27893;SDS011;15240;50.812;4.792;2022-12-18T05:26:42;50.13;;;25.00;;
27893;SDS011;15240;50.812;4.792;2022-12-18T05:29:08;55.67;;;26.43;;
27893;SDS011;15240;50.812;4.792;2022-12-18T05:31:37;48.60;;;25.57;;
27893;SDS011;15240;50.812;4.792;2022-12-18T05:34:03;53.27;;;27.07;;
27893;SDS011;15240;50.812;4.792;2022-12-18T05:36:29;49.53;;;26.17;;
27893;SDS011;15240;50.812;4.792;2022-12-18T05:38:56;54.13;;;26.30;;
27893;SDS011;15240;50.812;4.792;2022-12-18T05:41:22;61.27;;;27.53;;
27893;SDS011;15240;50.812;4.792;2022-12-18T05:43:48;52.70;;;25.07;;
27893;SDS011;15240;50.812;4.792;2022-12-18T05:46:15;53.33;;;26.20;;
27893;SDS011;15240;50.812;4.792;2022-12-18T05:48:42;51.30;;;26.33;;
27893;SDS011;15240;50.812;4.792;2022-12-18T05:51:10;53.53;;;23.90;;
27893;SDS011;15240;50.812;4.792;2022-12-18T05:53:36;54.20;;;27.03;;
27893;SDS011;15240;50.812;4.792;2022-12-18T05:56:03;53.10;;;26.37;;
27893;SDS011;15240;50.812;4.792;2022-12-18T05:58:30;51.00;;;25.40;;
27893;SDS011;15240;50.812;4.792;2022-12-18T06:00:56;49.40;;;24.20;;
27893;SDS011;15240;50.812;4.792;2022-12-18T06:03:22;48.93;;;25.47;;
27893;SDS011;15240;50.812;4.792;2022-12-18T06:05:48;50.20;;;24.37;;
27893;SDS011;15240;50.812;4.792;2022-12-18T06:08:14;56.43;;;24.97;;
27893;SDS011;15240;50.812;4.792;2022-12-18T06:10:41;59.47;;;26.67;;
27893;SDS011;15240;50.812;4.792;2022-12-18T06:13:07;47.27;;;24.30;;
27893;SDS011;15240;50.812;4.792;2022-12-18T06:15:35;53.87;;;26.90;;
27893;SDS011;15240;50.812;4.792;2022-12-18T06:18:02;48.63;;;25.87;;
27893;SDS011;15240;50.812;4.792;2022-12-18T06:20:28;51.73;;;24.37;;
27893;SDS011;15240;50.812;4.792;2022-12-18T06:22:54;54.73;;;26.67;;
27893;SDS011;15240;50.812;4.792;2022-12-18T06:25:20;57.27;;;26.17;;
27893;SDS011;15240;50.812;4.792;2022-12-18T06:27:47;47.43;;;25.80;;
27893;SDS011;15240;50.812;4.792;2022-12-18T06:30:13;47.87;;;24.30;;
27893;SDS011;15240;50.812;4.792;2022-12-18T06:32:39;47.63;;;24.87;;
27893;SDS011;15240;50.812;4.792;2022-12-18T06:35:05;47.77;;;23.80;;
27893;SDS011;15240;50.812;4.792;2022-12-18T06:37:31;52.23;;;25.70;;
27893;SDS011;15240;50.812;4.792;2022-12-18T06:39:57;44.63;;;22.43;;
27893;SDS011;15240;50.812;4.792;2022-12-18T06:42:24;45.87;;;23.27;;
27893;SDS011;15240;50.812;4.792;2022-12-18T06:44:50;45.63;;;23.27;;
27893;SDS011;15240;50.812;4.792;2022-12-18T06:47:16;49.13;;;23.50;;
27893;SDS011;15240;50.812;4.792;2022-12-18T06:49:42;48.33;;;24.20;;
27893;SDS011;15240;50.812;4.792;2022-12-18T06:52:08;52.33;;;24.47;;
27893;SDS011;15240;50.812;4.792;2022-12-18T06:54:34;52.57;;;24.63;;
27893;SDS011;15240;50.812;4.792;2022-12-18T06:57:00;46.53;;;23.63;;
27893;SDS011;15240;50.812;4.792;2022-12-18T06:59:26;41.20;;;23.00;;
27893;SDS011;15240;50.812;4.792;2022-12-18T07:01:52;52.33;;;23.83;;
27893;SDS011;15240;50.812;4.792;2022-12-18T07:04:18;46.13;;;22.50;;
27893;SDS011;15240;50.812;4.792;2022-12-18T07:06:45;48.27;;;24.47;;
27893;SDS011;15240;50.812;4.792;2022-12-18T07:09:11;43.70;;;23.03;;
27893;SDS011;15240;50.812;4.792;2022-12-18T07:11:37;45.67;;;23.47;;
27893;SDS011;15240;50.812;4.792;2022-12-18T07:14:03;46.83;;;24.77;;
27893;SDS011;15240;50.812;4.792;2022-12-18T07:16:29;48.20;;;23.43;;
27893;SDS011;15240;50.812;4.792;2022-12-18T07:18:55;45.03;;;22.93;;
27893;SDS011;15240;50.812;4.792;2022-12-18T07:21:22;46.47;;;23.80;;
27893;SDS011;15240;50.812;4.792;2022-12-18T07:23:48;47.93;;;23.67;;
27893;SDS011;15240;50.812;4.792;2022-12-18T07:26:17;45.10;;;21.53;;
27893;SDS011;15240;50.812;4.792;2022-12-18T07:28:43;42.57;;;22.27;;
27893;SDS011;15240;50.812;4.792;2022-12-18T07:31:10;40.80;;;21.17;;
27893;SDS011;15240;50.812;4.792;2022-12-18T07:33:36;42.30;;;20.13;;
27893;SDS011;15240;50.812;4.792;2022-12-18T07:36:03;39.83;;;20.97;;
27893;SDS011;15240;50.812;4.792;2022-12-18T07:38:30;35.40;;;19.97;;
27893;SDS011;15240;50.812;4.792;2022-12-18T07:41:03;45.43;;;21.33;;
27893;SDS011;15240;50.812;4.792;2022-12-18T07:43:29;36.50;;;19.30;;
27893;SDS011;15240;50.812;4.792;2022-12-18T07:45:55;42.57;;;21.07;;
27893;SDS011;15240;50.812;4.792;2022-12-18T07:48:22;38.13;;;22.40;;
27893;SDS011;15240;50.812;4.792;2022-12-18T07:50:48;70.37;;;24.77;;
27893;SDS011;15240;50.812;4.792;2022-12-18T07:53:14;38.23;;;20.97;;
27893;SDS011;15240;50.812;4.792;2022-12-18T07:55:41;45.30;;;21.90;;
27893;SDS011;15240;50.812;4.792;2022-12-18T07:58:07;40.87;;;20.17;;
27893;SDS011;15240;50.812;4.792;2022-12-18T08:00:33;41.70;;;19.90;;
27893;SDS011;15240;50.812;4.792;2022-12-18T08:03:00;42.10;;;21.53;;
27893;SDS011;15240;50.812;4.792;2022-12-18T08:05:26;41.87;;;19.90;;
27893;SDS011;15240;50.812;4.792;2022-12-18T08:07:52;40.63;;;19.93;;
27893;SDS011;15240;50.812;4.792;2022-12-18T08:10:18;40.43;;;20.33;;
27893;SDS011;15240;50.812;4.792;2022-12-18T08:12:45;36.70;;;19.57;;
27893;SDS011;15240;50.812;4.792;2022-12-18T08:15:11;37.67;;;18.83;;
27893;SDS011;15240;50.812;4.792;2022-12-18T08:17:37;38.57;;;18.37;;
27893;SDS011;15240;50.812;4.792;2022-12-18T08:20:03;37.50;;;19.70;;
27893;SDS011;15240;50.812;4.792;2022-12-18T08:22:29;34.20;;;19.30;;
27893;SDS011;15240;50.812;4.792;2022-12-18T08:24:55;36.57;;;19.40;;
27893;SDS011;15240;50.812;4.792;2022-12-18T08:27:21;37.13;;;20.13;;
27893;SDS011;15240;50.812;4.792;2022-12-18T08:29:47;36.83;;;19.07;;
27893;SDS011;15240;50.812;4.792;2022-12-18T08:32:13;36.33;;;18.37;;
27893;SDS011;15240;50.812;4.792;2022-12-18T08:34:39;34.47;;;17.83;;
27893;SDS011;15240;50.812;4.792;2022-12-18T08:37:05;34.57;;;17.73;;
27893;SDS011;15240;50.812;4.792;2022-12-18T08:39:31;31.50;;;17.83;;
27893;SDS011;15240;50.812;4.792;2022-12-18T08:41:57;32.73;;;17.40;;
27893;SDS011;15240;50.812;4.792;2022-12-18T08:44:42;33.80;;;17.97;;
27893;SDS011;15240;50.812;4.792;2022-12-18T08:47:08;29.73;;;16.47;;
27893;SDS011;15240;50.812;4.792;2022-12-18T08:49:34;28.73;;;15.97;;
27893;SDS011;15240;50.812;4.792;2022-12-18T08:52:00;32.60;;;16.40;;
27893;SDS011;15240;50.812;4.792;2022-12-18T08:54:27;30.63;;;16.83;;
27893;SDS011;15240;50.812;4.792;2022-12-18T08:56:53;32.50;;;16.90;;
27893;SDS011;15240;50.812;4.792;2022-12-18T08:59:20;31.10;;;16.13;;
27893;SDS011;15240;50.812;4.792;2022-12-18T09:01:46;26.60;;;16.20;;
27893;SDS011;15240;50.812;4.792;2022-12-18T09:04:12;26.47;;;16.40;;
27893;SDS011;15240;50.812;4.792;2022-12-18T09:06:39;30.33;;;16.77;;
27893;SDS011;15240;50.812;4.792;2022-12-18T09:09:05;31.23;;;17.47;;
27893;SDS011;15240;50.812;4.792;2022-12-18T09:11:32;29.37;;;16.93;;
27893;SDS011;15240;50.812;4.792;2022-12-18T09:13:59;27.13;;;15.87;;
27893;SDS011;15240;50.812;4.792;2022-12-18T09:16:25;31.27;;;16.43;;
27893;SDS011;15240;50.812;4.792;2022-12-18T09:18:53;29.33;;;17.53;;
27893;SDS011;15240;50.812;4.792;2022-12-18T09:21:24;29.77;;;16.20;;
27893;SDS011;15240;50.812;4.792;2022-12-18T09:23:51;30.67;;;17.63;;
27893;SDS011;15240;50.812;4.792;2022-12-18T09:26:18;28.17;;;16.37;;
27893;SDS011;15240;50.812;4.792;2022-12-18T09:28:44;31.73;;;17.87;;
27893;SDS011;15240;50.812;4.792;2022-12-18T09:31:11;30.00;;;16.90;;
27893;SDS011;15240;50.812;4.792;2022-12-18T09:33:37;26.47;;;16.87;;
27893;SDS011;15240;50.812;4.792;2022-12-18T09:36:04;30.03;;;16.80;;
27893;SDS011;15240;50.812;4.792;2022-12-18T09:38:30;31.70;;;17.43;;
27893;SDS011;15240;50.812;4.792;2022-12-18T09:41:00;30.20;;;16.30;;
27893;SDS011;15240;50.812;4.792;2022-12-18T09:43:43;30.33;;;16.70;;
27893;SDS011;15240;50.812;4.792;2022-12-18T09:46:11;27.10;;;16.73;;
27893;SDS011;15240;50.812;4.792;2022-12-18T09:48:42;30.50;;;16.80;;
27893;SDS011;15240;50.812;4.792;2022-12-18T09:51:14;34.57;;;18.40;;
27893;SDS011;15240;50.812;4.792;2022-12-18T09:53:41;34.03;;;19.00;;
27893;SDS011;15240;50.812;4.792;2022-12-18T09:56:12;33.13;;;17.57;;
27893;SDS011;15240;50.812;4.792;2022-12-18T09:58:43;31.70;;;18.73;;
27893;SDS011;15240;50.812;4.792;2022-12-18T10:01:14;34.57;;;19.30;;
27893;SDS011;15240;50.812;4.792;2022-12-18T10:03:41;34.63;;;19.13;;
27893;SDS011;15240;50.812;4.792;2022-12-18T10:06:31;30.43;;;17.87;;
27893;SDS011;15240;50.812;4.792;2022-12-18T10:08:56;29.83;;;17.73;;
27893;SDS011;15240;50.812;4.792;2022-12-18T10:11:27;31.93;;;18.03;;
27893;SDS011;15240;50.812;4.792;2022-12-18T10:13:57;36.27;;;19.40;;
27893;SDS011;15240;50.812;4.792;2022-12-18T10:21:39;28.87;;;17.90;;
27893;SDS011;15240;50.812;4.792;2022-12-18T10:24:13;33.90;;;18.70;;
27893;SDS011;15240;50.812;4.792;2022-12-18T10:26:42;36.27;;;18.67;;
27893;SDS011;15240;50.812;4.792;2022-12-18T10:29:13;32.50;;;17.97;;
27893;SDS011;15240;50.812;4.792;2022-12-18T10:31:39;39.70;;;19.27;;
27893;SDS011;15240;50.812;4.792;2022-12-18T10:34:12;34.20;;;19.20;;
27893;SDS011;15240;50.812;4.792;2022-12-18T10:36:38;34.13;;;19.40;;
27893;SDS011;15240;50.812;4.792;2022-12-18T10:39:14;35.77;;;20.13;;
27893;SDS011;15240;50.812;4.792;2022-12-18T10:41:41;34.67;;;20.50;;
27893;SDS011;15240;50.812;4.792;2022-12-18T10:46:36;35.50;;;19.53;;
27893;SDS011;15240;50.812;4.792;2022-12-18T10:49:02;31.63;;;19.33;;
27893;SDS011;15240;50.812;4.792;2022-12-18T10:53:56;33.60;;;20.50;;
27893;SDS011;15240;50.812;4.792;2022-12-18T10:56:23;31.30;;;19.47;;
27893;SDS011;15240;50.812;4.792;2022-12-18T10:58:57;33.90;;;19.57;;
27893;SDS011;15240;50.812;4.792;2022-12-18T11:01:23;39.63;;;21.37;;
27893;SDS011;15240;50.812;4.792;2022-12-18T11:06:16;41.87;;;21.47;;
27893;SDS011;15240;50.812;4.792;2022-12-18T11:08:46;35.90;;;20.97;;
27893;SDS011;15240;50.812;4.792;2022-12-18T11:11:22;36.13;;;21.07;;
27893;SDS011;15240;50.812;4.792;2022-12-18T11:14:02;37.93;;;21.30;;
27893;SDS011;15240;50.812;4.792;2022-12-18T11:16:29;37.23;;;21.07;;
27893;SDS011;15240;50.812;4.792;2022-12-18T11:19:07;36.37;;;22.33;;
27893;SDS011;15240;50.812;4.792;2022-12-18T11:21:40;44.87;;;23.63;;
27893;SDS011;15240;50.812;4.792;2022-12-18T11:24:07;38.33;;;20.87;;
27893;SDS011;15240;50.812;4.792;2022-12-18T11:26:41;39.13;;;23.87;;
27893;SDS011;15240;50.812;4.792;2022-12-18T11:29:09;40.47;;;25.40;;
27893;SDS011;15240;50.812;4.792;2022-12-18T11:31:35;40.37;;;23.87;;
27893;SDS011;15240;50.812;4.792;2022-12-18T11:34:04;40.90;;;23.50;;
27893;SDS011;15240;50.812;4.792;2022-12-18T11:36:33;39.47;;;22.93;;
27893;SDS011;15240;50.812;4.792;2022-12-18T11:39:02;37.93;;;22.97;;
27893;SDS011;15240;50.812;4.792;2022-12-18T11:41:36;39.73;;;23.47;;
27893;SDS011;15240;50.812;4.792;2022-12-18T11:44:24;41.00;;;23.60;;
27893;SDS011;15240;50.812;4.792;2022-12-18T11:47:03;41.07;;;23.80;;
27893;SDS011;15240;50.812;4.792;2022-12-18T11:49:34;41.07;;;23.23;;
27893;SDS011;15240;50.812;4.792;2022-12-18T11:54:27;41.53;;;25.50;;
27893;SDS011;15240;50.812;4.792;2022-12-18T11:56:58;44.37;;;26.37;;
27893;SDS011;15240;50.812;4.792;2022-12-18T12:04:54;45.23;;;24.67;;
27893;SDS011;15240;50.812;4.792;2022-12-18T12:12:32;44.43;;;24.00;;
27893;SDS011;15240;50.812;4.792;2022-12-18T12:17:45;43.27;;;24.53;;
27893;SDS011;15240;50.812;4.792;2022-12-18T12:20:25;43.63;;;25.07;;
27893;SDS011;15240;50.812;4.792;2022-12-18T12:22:55;43.50;;;24.53;;
27893;SDS011;15240;50.812;4.792;2022-12-18T12:28:05;43.60;;;24.87;;
27893;SDS011;15240;50.812;4.792;2022-12-18T12:30:56;41.47;;;24.50;;
27893;SDS011;15240;50.812;4.792;2022-12-18T12:33:29;44.07;;;25.30;;
27893;SDS011;15240;50.812;4.792;2022-12-18T12:38:28;41.47;;;24.47;;
27893;SDS011;15240;50.812;4.792;2022-12-18T12:41:00;40.67;;;23.47;;
27893;SDS011;15240;50.812;4.792;2022-12-18T12:46:00;38.53;;;21.77;;
27893;SDS011;15240;50.812;4.792;2022-12-18T12:48:45;36.50;;;20.73;;
27893;SDS011;15240;50.812;4.792;2022-12-18T12:53:47;34.53;;;20.57;;
27893;SDS011;15240;50.812;4.792;2022-12-18T12:56:15;38.43;;;22.03;;
27893;SDS011;15240;50.812;4.792;2022-12-18T12:58:44;36.63;;;20.63;;
27893;SDS011;15240;50.812;4.792;2022-12-18T13:01:17;36.47;;;20.97;;
27893;SDS011;15240;50.812;4.792;2022-12-18T13:09:10;38.90;;;21.50;;
27893;SDS011;15240;50.812;4.792;2022-12-18T13:14:27;41.60;;;21.73;;
27893;SDS011;15240;50.812;4.792;2022-12-18T13:19:38;40.27;;;21.60;;
27893;SDS011;15240;50.812;4.792;2022-12-18T13:22:04;38.73;;;22.40;;
27893;SDS011;15240;50.812;4.792;2022-12-18T13:24:45;39.10;;;22.97;;
27893;SDS011;15240;50.812;4.792;2022-12-18T13:30:19;39.47;;;21.93;;
27893;SDS011;15240;50.812;4.792;2022-12-18T13:33:05;37.47;;;21.03;;
27893;SDS011;15240;50.812;4.792;2022-12-18T13:35:37;38.20;;;21.93;;
27893;SDS011;15240;50.812;4.792;2022-12-18T13:38:18;37.63;;;21.30;;
27893;SDS011;15240;50.812;4.792;2022-12-18T13:45:48;38.80;;;23.23;;
27893;SDS011;15240;50.812;4.792;2022-12-18T13:48:19;40.97;;;22.43;;
27893;SDS011;15240;50.812;4.792;2022-12-18T13:51:29;43.50;;;23.90;;
27893;SDS011;15240;50.812;4.792;2022-12-18T13:53:42;42.90;;;24.20;;
27893;SDS011;15240;50.812;4.792;2022-12-18T13:56:14;40.57;;;23.43;;
27893;SDS011;15240;50.812;4.792;2022-12-18T13:58:40;44.37;;;26.80;;
27893;SDS011;15240;50.812;4.792;2022-12-18T14:01:20;40.97;;;24.67;;
27893;SDS011;15240;50.812;4.792;2022-12-18T14:03:47;43.37;;;24.23;;
27893;SDS011;15240;50.812;4.792;2022-12-18T14:06:13;41.37;;;24.00;;
27893;SDS011;15240;50.812;4.792;2022-12-18T14:08:39;42.40;;;24.27;;
27893;SDS011;15240;50.812;4.792;2022-12-18T14:11:06;40.97;;;23.57;;
27893;SDS011;15240;50.812;4.792;2022-12-18T14:13:37;43.07;;;23.97;;
27893;SDS011;15240;50.812;4.792;2022-12-18T14:16:05;40.57;;;22.37;;
27893;SDS011;15240;50.812;4.792;2022-12-18T14:21:05;41.40;;;23.93;;
27893;SDS011;15240;50.812;4.792;2022-12-18T14:23:38;43.00;;;23.20;;
27893;SDS011;15240;50.812;4.792;2022-12-18T14:28:52;45.17;;;24.60;;
27893;SDS011;15240;50.812;4.792;2022-12-18T14:31:22;42.97;;;24.23;;
27893;SDS011;15240;50.812;4.792;2022-12-18T14:33:49;44.57;;;25.20;;
27893;SDS011;15240;50.812;4.792;2022-12-18T14:36:16;48.87;;;25.50;;
27893;SDS011;15240;50.812;4.792;2022-12-18T14:38:43;42.90;;;24.53;;
27893;SDS011;15240;50.812;4.792;2022-12-18T14:41:13;47.03;;;25.27;;
27893;SDS011;15240;50.812;4.792;2022-12-18T14:43:39;46.97;;;25.07;;
27893;SDS011;15240;50.812;4.792;2022-12-18T14:46:19;49.53;;;25.60;;
27893;SDS011;15240;50.812;4.792;2022-12-18T14:48:51;42.90;;;24.47;;
27893;SDS011;15240;50.812;4.792;2022-12-18T14:51:18;47.87;;;26.47;;
27893;SDS011;15240;50.812;4.792;2022-12-18T14:53:45;48.63;;;26.10;;
27893;SDS011;15240;50.812;4.792;2022-12-18T14:56:16;47.50;;;24.80;;
27893;SDS011;15240;50.812;4.792;2022-12-18T14:58:46;49.27;;;26.77;;
27893;SDS011;15240;50.812;4.792;2022-12-18T15:03:49;44.07;;;25.13;;
27893;SDS011;15240;50.812;4.792;2022-12-18T15:06:15;45.43;;;23.77;;
27893;SDS011;15240;50.812;4.792;2022-12-18T15:08:42;43.83;;;24.40;;
27893;SDS011;15240;50.812;4.792;2022-12-18T15:11:25;47.47;;;25.37;;
27893;SDS011;15240;50.812;4.792;2022-12-18T15:13:51;44.07;;;24.33;;
27893;SDS011;15240;50.812;4.792;2022-12-18T15:16:17;45.50;;;24.60;;
27893;SDS011;15240;50.812;4.792;2022-12-18T15:18:43;42.37;;;24.13;;
27893;SDS011;15240;50.812;4.792;2022-12-18T15:21:17;45.00;;;24.77;;
27893;SDS011;15240;50.812;4.792;2022-12-18T15:26:11;46.57;;;25.27;;
27893;SDS011;15240;50.812;4.792;2022-12-18T15:28:38;46.47;;;25.30;;
27893;SDS011;15240;50.812;4.792;2022-12-18T15:33:34;45.87;;;24.70;;
27893;SDS011;15240;50.812;4.792;2022-12-18T15:36:01;46.50;;;25.10;;
27893;SDS011;15240;50.812;4.792;2022-12-18T15:38:27;45.70;;;24.60;;
27893;SDS011;15240;50.812;4.792;2022-12-18T15:40:53;47.57;;;25.40;;
27893;SDS011;15240;50.812;4.792;2022-12-18T15:43:21;48.40;;;25.97;;
27893;SDS011;15240;50.812;4.792;2022-12-18T15:46:00;52.50;;;26.93;;
27893;SDS011;15240;50.812;4.792;2022-12-18T15:48:26;50.30;;;26.73;;
27893;SDS011;15240;50.812;4.792;2022-12-18T15:50:53;50.67;;;26.63;;
27893;SDS011;15240;50.812;4.792;2022-12-18T15:53:21;48.03;;;26.77;;
27893;SDS011;15240;50.812;4.792;2022-12-18T15:55:47;51.43;;;26.03;;
27893;SDS011;15240;50.812;4.792;2022-12-18T15:58:32;51.70;;;25.97;;
27893;SDS011;15240;50.812;4.792;2022-12-18T16:00:58;47.83;;;26.27;;
27893;SDS011;15240;50.812;4.792;2022-12-18T16:03:25;47.47;;;26.07;;